createdAt,value
2018-12-07T00:00:15.161Z,101238.67
2018-12-07T00:03:01.648Z,101217.17
2018-12-07T00:05:40.200Z,101231.88
2018-12-07T00:14:15.889Z,101225.23
2018-12-07T00:17:22.078Z,101223.33
2018-12-07T00:29:27.190Z,101196.81
2018-12-07T00:37:48.302Z,101191.66
2018-12-07T00:40:30.876Z,101189.47
2018-12-07T00:50:34.518Z,101177.30
2018-12-07T00:58:37.951Z,101158.95
2018-12-07T01:06:58.317Z,101154.63
2018-12-07T01:12:43.895Z,101150.70
2018-12-07T01:21:37.839Z,101151.91
2018-12-07T01:27:16.063Z,101153.64
2018-12-07T01:35:36.380Z,101146.59
2018-12-07T01:48:07.614Z,101113.11
2018-12-07T01:50:51.670Z,101124.38
2018-12-07T01:53:32.018Z,101123.64
2018-12-07T01:56:08.516Z,101116.31
2018-12-07T02:05:37.973Z,101109.62
2018-12-07T02:08:11.771Z,101099.34
2018-12-07T02:10:49.152Z,101099.55
2018-12-07T02:13:23.368Z,101102.79
2018-12-07T02:16:05.648Z,101099.55
2018-12-07T02:18:39.592Z,101100.58
2018-12-07T02:21:13.733Z,101096.30
2018-12-07T02:23:58.913Z,101090.89
2018-12-07T02:26:40.732Z,101100.69
2018-12-07T02:29:19.541Z,101090.94
2018-12-07T02:31:57.945Z,101080.23
2018-12-07T02:34:32.222Z,101074.98
2018-12-07T02:37:11.983Z,101065.62
2018-12-07T02:39:45.792Z,101071.47
2018-12-07T02:45:05.305Z,101064.05
2018-12-07T02:47:40.530Z,101056.56
2018-12-07T02:50:15.532Z,101058.04
2018-12-07T02:55:44.040Z,101041.13
2018-12-07T02:59:57.841Z,101029.87
2018-12-07T03:02:38.403Z,101026.23
2018-12-07T03:05:15.658Z,101022.98
2018-12-07T03:07:49.842Z,101013.93
2018-12-07T03:10:24.597Z,101000.80
2018-12-07T03:13:00.683Z,101007.54
2018-12-07T03:15:35.561Z,100999.80
2018-12-07T03:18:13.498Z,100999.20
2018-12-07T03:20:47.233Z,100996.48
2018-12-07T03:23:21.110Z,101001.50
2018-12-07T03:25:56.234Z,101004.95
2018-12-07T03:28:29.808Z,101000.09
2018-12-07T03:31:04.499Z,100996.39
2018-12-07T03:33:37.595Z,100997.79
2018-12-07T03:36:13.430Z,100986.13
2018-12-07T03:38:49.077Z,100986.96
2018-12-07T03:41:23.930Z,100982.48
2018-12-07T03:43:57.700Z,100981.91
2018-12-07T03:46:35.881Z,100970.72
2018-12-07T03:49:10.277Z,100966.16
2018-12-07T03:51:45.483Z,100959.27
2018-12-07T03:54:21.661Z,100959.39
2018-12-07T03:57:01.133Z,100950.81
2018-12-07T03:59:34.829Z,100950.44
2018-12-07T04:02:09.006Z,100944.26
2018-12-07T04:04:45.526Z,100946.55
2018-12-07T04:07:25.278Z,100922.41
2018-12-07T04:09:57.029Z,100933.98
2018-12-07T04:12:39.332Z,100943.69
2018-12-07T04:15:16.111Z,100929.08
2018-12-07T04:17:53.774Z,100931.28
2018-12-07T04:20:32.128Z,100926.17
2018-12-07T04:23:11.320Z,100916.92
2018-12-07T04:25:45.664Z,100916.13
2018-12-07T04:28:22.467Z,100905.92
2018-12-07T04:31:03.119Z,100910.55
2018-12-07T04:33:42.025Z,100906.90
2018-12-07T04:36:17.508Z,100903.70
2018-12-07T04:38:58.712Z,100898.13
2018-12-07T04:53:25.522Z,100874.17
2018-12-07T04:59:23.340Z,100868.47
2018-12-07T05:05:23.607Z,100853.38
2018-12-07T05:10:59.087Z,100845.27
2018-12-07T05:13:40.683Z,100844.42
2018-12-07T05:16:18.126Z,100832.66
2018-12-07T05:30:45.288Z,100817.13
2018-12-07T05:33:30.190Z,100812.53
2018-12-07T05:36:10.529Z,100819.32
2018-12-07T05:41:46.478Z,100800.33
2018-12-07T05:44:25.042Z,100797.33
2018-12-07T05:47:14.796Z,100796.48
2018-12-07T05:58:12.445Z,100774.05
2018-12-07T06:04:04.870Z,100762.72
2018-12-07T06:06:33.579Z,100768.28
2018-12-07T06:09:15.041Z,100762.72
2018-12-07T06:11:56.702Z,100764.71
2018-12-07T06:15:19.289Z,100756.14
2018-12-07T06:18:05.385Z,100744.20
2018-12-07T06:20:45.177Z,100744.48
2018-12-07T06:23:23.610Z,100740.61
2018-12-07T06:31:38.425Z,100735.70
2018-12-07T06:34:22.508Z,100734.32
2018-12-07T06:37:00.232Z,100729.20
2018-12-07T06:39:35.605Z,100729.66
2018-12-07T06:42:13.536Z,100720.36
2018-12-07T06:44:47.012Z,100717.25
2018-12-07T06:47:18.819Z,100715.14
2018-12-07T06:52:11.286Z,100704.38
2018-12-07T06:54:46.767Z,100698.53
2018-12-07T06:57:24.021Z,100699.91
2018-12-07T07:00:07.029Z,100696.08
2018-12-07T07:02:41.693Z,100695.08
2018-12-07T07:05:17.395Z,100694.25
2018-12-07T07:07:53.465Z,100693.35
2018-12-07T07:10:28.428Z,100687.03
2018-12-07T07:15:48.839Z,100684.68
2018-12-07T07:18:26.712Z,100677.02
2018-12-07T07:21:09.049Z,100678.19
2018-12-07T07:23:47.111Z,100664.41
2018-12-07T07:29:12.316Z,100658.30
2018-12-07T07:31:52.343Z,100656.45
2018-12-07T07:34:34.086Z,100657.73
2018-12-07T07:37:09.463Z,100652.97
2018-12-07T07:39:50.349Z,100646.05
2018-12-07T07:45:13.776Z,100643.69
2018-12-07T07:47:52.656Z,100633.56
2018-12-07T07:50:35.376Z,100636.39
2018-12-07T07:53:11.786Z,100633.64
2018-12-07T07:56:01.575Z,100634.56
2018-12-07T08:01:32.563Z,100632.51
2018-12-07T08:04:07.991Z,100627.52
2018-12-07T08:06:44.498Z,100628.34
2018-12-07T08:09:20.819Z,100625.89
2018-12-07T08:11:55.637Z,100598.69
2018-12-07T08:14:30.192Z,100619.13
2018-12-07T08:17:08.115Z,100604.05
2018-12-07T08:19:45.809Z,100613.89
2018-12-07T08:22:27.773Z,100599.78
2018-12-07T08:30:38.803Z,100579.79
2018-12-07T08:33:16.811Z,100582.33
2018-12-07T08:35:52.551Z,100583.59
2018-12-07T08:38:34.035Z,100579.48
2018-12-07T08:41:12.790Z,100570.30
2018-12-07T08:43:49.751Z,100551.22
2018-12-07T08:49:07.759Z,100528.27
2018-12-07T08:51:42.006Z,100527.00
2018-12-07T08:54:17.464Z,100520.88
2018-12-07T08:56:51.567Z,100508.94
2018-12-07T08:59:31.651Z,100504.20
2018-12-07T09:02:06.614Z,100503.99
2018-12-07T09:04:48.941Z,100492.45
2018-12-07T09:07:25.803Z,100490.55
2018-12-07T09:10:01.261Z,100484.61
2018-12-07T09:12:39.620Z,100480.64
2018-12-07T09:18:08.781Z,100480.84
2018-12-07T09:20:42.166Z,100466.30
2018-12-07T09:23:15.744Z,100473.29
2018-12-07T09:25:51.891Z,100470.14
2018-12-07T09:28:28.552Z,100484.58
2018-12-07T09:31:03.309Z,100475.20
2018-12-07T09:33:38.407Z,100475.55
2018-12-07T09:36:12.218Z,100471.30
2018-12-07T09:38:44.632Z,100475.28
2018-12-07T09:41:18.696Z,100457.09
2018-12-07T09:43:54.697Z,100458.33
2018-12-07T09:46:34.253Z,100439.57
2018-12-07T09:49:09.572Z,100439.91
2018-12-07T09:51:46.974Z,100428.92
2018-12-07T09:54:20.916Z,100437.47
2018-12-07T09:57:04.145Z,100439.23
2018-12-07T09:59:40.449Z,100419.00
2018-12-07T10:02:16.685Z,100422.64
2018-12-07T10:04:50.096Z,100408.48
2018-12-07T10:07:27.187Z,100402.45
2018-12-07T10:10:07.617Z,100411.03
2018-12-07T10:12:44.106Z,100399.80
2018-12-07T10:15:21.896Z,100388.96
2018-12-07T10:17:58.576Z,100390.39
2018-12-07T10:20:33.459Z,100389.86
2018-12-07T10:23:07.432Z,100381.52
2018-12-07T10:25:41.872Z,100385.00
2018-12-07T10:28:19.653Z,100370.94
2018-12-07T10:30:53.701Z,100369.93
2018-12-07T10:33:29.224Z,100370.82
2018-12-07T10:36:07.596Z,100347.23
2018-12-07T10:38:50.034Z,100347.66
2018-12-07T10:41:26.129Z,100352.68
2018-12-07T10:44:02.136Z,100346.33
2018-12-07T10:46:44.189Z,100347.66
2018-12-07T10:49:18.756Z,100335.86
2018-12-07T10:51:53.815Z,100333.48
2018-12-07T10:54:29.384Z,100321.78
2018-12-07T10:57:03.464Z,100314.70
2018-12-07T10:59:44.907Z,100305.47
2018-12-07T11:02:25.684Z,100286.38
2018-12-07T11:04:59.718Z,100299.53
2018-12-07T11:07:39.680Z,100285.55
2018-12-07T11:10:19.674Z,100274.95
2018-12-07T11:13:04.152Z,100272.83
2018-12-07T11:18:30.737Z,100246.09
2018-12-07T11:21:10.104Z,100218.56
2018-12-07T11:23:55.261Z,100226.91
2018-12-07T11:26:29.626Z,100203.73
2018-12-07T11:29:08.621Z,100206.61
2018-12-07T11:31:47.893Z,100198.42
2018-12-07T11:34:32.060Z,100187.09
2018-12-07T11:37:06.795Z,100176.20
2018-12-07T11:42:36.340Z,100166.77
2018-12-07T11:45:10.983Z,100145.85
2018-12-07T11:47:51.521Z,100141.44
2018-12-07T11:53:24.004Z,100122.83
2018-12-07T11:55:57.782Z,100110.42
2018-12-07T11:58:27.657Z,100117.76
2018-12-07T12:00:59.391Z,100112.98
2018-12-07T12:03:34.908Z,100101.25
2018-12-07T12:06:06.900Z,100083.03
2018-12-07T12:08:45.838Z,100078.31
2018-12-07T12:11:22.332Z,100077.70
2018-12-07T12:13:59.359Z,100069.38
2018-12-07T12:16:33.157Z,100051.06
2018-12-07T12:19:07.454Z,100055.89
2018-12-07T12:21:39.400Z,100031.94
2018-12-07T12:24:14.267Z,100021.92
2018-12-07T12:26:52.348Z,100015.86
2018-12-07T12:29:26.383Z,100005.09
2018-12-07T12:32:01.264Z,99991.49
2018-12-07T12:34:35.738Z,99991.25
2018-12-07T12:37:13.711Z,99982.78
2018-12-07T12:39:47.200Z,99972.53
2018-12-07T12:42:21.406Z,99970.00
2018-12-07T12:45:00.119Z,99957.92
2018-12-07T12:47:34.455Z,99951.12
2018-12-07T12:50:16.752Z,99947.09
2018-12-07T12:52:51.153Z,99929.52
2018-12-07T12:55:26.785Z,99928.48
2018-12-07T12:58:03.930Z,99917.88
2018-12-07T13:00:41.563Z,99864.02
2018-12-07T13:03:13.540Z,99909.47
2018-12-07T13:08:46.135Z,99889.26
2018-12-07T13:11:20.406Z,99878.09
2018-12-07T13:13:54.154Z,99890.87
2018-12-07T13:16:30.096Z,99883.54
2018-12-07T13:19:05.177Z,99869.13
2018-12-07T13:24:32.493Z,99856.70
2018-12-07T13:27:00.548Z,99851.82
2018-12-07T13:29:29.543Z,99845.32
2018-12-07T13:32:04.215Z,99841.96
2018-12-07T13:34:38.732Z,99838.58
2018-12-07T13:37:12.968Z,99830.22
2018-12-07T13:39:44.052Z,99799.41
2018-12-07T13:42:24.786Z,99813.82
2018-12-07T13:45:09.294Z,99814.75
2018-12-07T13:47:40.249Z,99810.92
2018-12-07T13:50:17.789Z,99798.84
2018-12-07T13:52:55.143Z,99791.27
2018-12-07T13:55:24.530Z,99780.35
2018-12-07T13:57:54.686Z,99769.33
2018-12-07T14:00:24.181Z,99763.73
2018-12-07T14:02:52.508Z,99763.17
2018-12-07T14:08:20.433Z,99743.41
2018-12-07T14:10:48.784Z,99733.56
2018-12-07T14:13:16.988Z,99724.47
2018-12-07T14:15:45.327Z,99729.34
2018-12-07T14:18:13.558Z,99718.58
2018-12-07T14:20:41.863Z,99707.99
2018-12-07T14:23:10.129Z,99696.37
2018-12-07T14:25:38.700Z,99682.56
2018-12-07T14:28:13.775Z,99679.08
2018-12-07T14:30:42.228Z,99672.57
2018-12-07T14:33:10.691Z,99656.20
2018-12-07T14:35:39.166Z,99669.08
2018-12-07T14:38:18.817Z,99665.95
2018-12-07T14:40:47.098Z,99668.52
2018-12-07T14:43:15.566Z,99661.66
2018-12-07T14:45:50.106Z,99650.74
2018-12-07T14:48:33.159Z,99645.30
2018-12-07T14:51:01.711Z,99644.00
2018-12-07T14:53:36.561Z,99646.67
2018-12-07T14:56:11.410Z,99634.94
2018-12-07T14:58:46.279Z,99633.91
2018-12-07T15:01:20.207Z,99623.36
2018-12-07T15:03:51.445Z,99607.31
2018-12-07T15:06:25.968Z,99606.16
2018-12-07T15:08:55.387Z,99601.98
2018-12-07T15:11:23.742Z,99590.60
2018-12-07T15:13:57.560Z,99592.22
2018-12-07T15:16:29.278Z,99571.69
2018-12-07T15:19:02.264Z,99586.69
2018-12-07T15:21:31.592Z,99580.40
2018-12-07T15:24:07.677Z,99582.16
2018-12-07T15:26:42.386Z,99575.20
2018-12-07T15:29:17.500Z,99569.05
2018-12-07T15:34:53.319Z,99561.96
2018-12-07T15:37:30.187Z,99566.63
2018-12-07T15:40:07.695Z,99548.84
2018-12-07T15:42:42.247Z,99564.50
2018-12-07T15:45:19.338Z,99550.81
2018-12-07T15:47:53.367Z,99545.96
2018-12-07T15:50:30.721Z,99558.13
2018-12-07T15:52:58.945Z,99565.08
2018-12-07T15:55:34.609Z,99558.83
2018-12-07T15:58:09.188Z,99618.23
2018-12-07T16:00:49.408Z,99651.31
2018-12-07T16:03:20.344Z,99654.31
2018-12-07T16:05:54.742Z,99664.39
2018-12-07T16:08:30.573Z,99669.89
2018-12-07T16:11:04.383Z,99674.59
2018-12-07T16:13:35.936Z,99674.98
2018-12-07T16:16:05.008Z,99688.96
2018-12-07T16:18:37.080Z,99683.59
2018-12-07T16:21:07.705Z,99693.75
2018-12-07T16:23:39.936Z,99718.52
2018-12-07T16:29:12.735Z,99731.70
2018-12-07T16:31:47.596Z,99765.30
2018-12-07T16:34:20.211Z,99777.45
2018-12-07T16:36:48.889Z,99781.02
2018-12-07T16:39:19.821Z,99792.84
2018-12-07T16:41:48.111Z,99793.44
2018-12-07T16:44:16.331Z,99789.28
2018-12-07T16:46:44.519Z,99795.25
2018-12-07T16:49:13.054Z,99803.17
2018-12-07T16:51:42.332Z,99811.69
2018-12-07T16:54:10.655Z,99820.16
2018-12-07T16:56:39.113Z,99830.42
2018-12-07T16:59:07.474Z,99831.02
2018-12-07T17:01:35.713Z,99835.90
2018-12-07T17:04:04.016Z,99839.34
2018-12-07T17:06:32.312Z,99833.87
2018-12-07T17:09:00.691Z,99824.23
2018-12-07T17:11:30.771Z,99829.55
2018-12-07T17:13:59.001Z,99828.25
2018-12-07T17:16:27.156Z,99833.34
2018-12-07T17:18:55.435Z,99833.91
2018-12-07T17:21:24.808Z,99833.80
2018-12-07T17:23:53.190Z,99838.63
2018-12-07T17:26:33.603Z,99842.18
2018-12-07T17:29:02.803Z,99860.61
2018-12-07T17:31:32.626Z,99873.35
2018-12-07T17:34:00.693Z,99875.40
2018-12-07T17:36:29.132Z,99875.95
2018-12-07T17:38:57.294Z,99884.42
2018-12-07T17:41:25.283Z,99883.59
2018-12-07T17:43:54.266Z,99879.20
2018-12-07T17:46:22.715Z,99884.34
2018-12-07T17:48:50.972Z,99898.26
2018-12-07T17:51:19.640Z,99909.23
2018-12-07T17:53:48.681Z,99921.78
2018-12-07T17:56:17.085Z,99922.24
2018-12-07T18:00:13.001Z,99924.52
2018-12-07T18:02:41.642Z,99919.05
2018-12-07T18:05:09.903Z,99918.36
2018-12-07T18:07:38.042Z,99932.80
2018-12-07T18:10:07.395Z,99935.41
2018-12-07T18:12:36.249Z,99936.88
2018-12-07T18:15:05.277Z,99937.94
2018-12-07T18:17:35.262Z,99943.75
2018-12-07T18:23:01.884Z,99959.89
2018-12-07T18:25:36.156Z,99963.10
2018-12-07T18:28:10.406Z,99984.25
2018-12-07T18:30:44.435Z,99992.66
2018-12-07T18:33:19.431Z,100003.30
2018-12-07T18:35:57.473Z,100008.45
2018-12-07T18:38:26.372Z,100020.29
2018-12-07T18:41:00.501Z,100034.05
2018-12-07T18:46:24.845Z,99998.73
2018-12-07T18:48:56.628Z,99989.84
2018-12-07T18:54:29.470Z,100009.62
2018-12-07T18:57:00.323Z,100006.77
2018-12-07T18:59:32.206Z,100017.19
2018-12-07T19:02:13.311Z,100023.53
2018-12-07T19:04:50.629Z,100036.67
2018-12-07T19:07:26.633Z,100044.83
2018-12-07T19:09:54.844Z,100044.44
2018-12-07T19:12:30.192Z,100056.11
2018-12-07T19:15:06.036Z,100075.30
2018-12-07T19:17:38.043Z,100089.48
2018-12-07T19:20:12.042Z,100093.58
2018-12-07T19:22:57.090Z,100100.78
2018-12-07T19:25:32.562Z,100112.41
2018-12-07T19:28:08.022Z,100106.15
2018-12-07T19:30:53.010Z,100095.75
2018-12-07T19:33:21.968Z,100100.81
2018-12-07T19:36:02.369Z,100113.52
2018-12-07T20:02:00.723Z,100144.73
2018-12-07T20:10:39.028Z,100146.27
2018-12-07T20:28:00.396Z,100152.81
2018-12-07T20:33:28.426Z,100174.09
2018-12-07T20:39:07.120Z,100197.69
2018-12-07T20:41:43.723Z,100213.18
2018-12-07T20:44:19.460Z,100215.88
2018-12-07T20:46:55.389Z,100219.17
2018-12-07T20:49:30.363Z,100212.15
2018-12-07T20:52:04.713Z,100215.28
2018-12-07T20:54:39.777Z,100211.50
2018-12-07T20:57:15.880Z,100214.14
2018-12-07T20:59:51.624Z,100210.42
2018-12-07T21:02:29.016Z,100203.39
2018-12-07T21:05:03.497Z,100212.55
2018-12-07T21:07:47.786Z,100217.01
2018-12-07T21:13:33.436Z,100225.67
2018-12-07T21:17:12.806Z,100222.73
2018-12-07T21:19:48.255Z,100240.81
2018-12-07T21:22:32.923Z,100243.95
2018-12-07T21:25:07.626Z,100241.19
2018-12-07T21:27:51.560Z,100245.57
2018-12-07T21:33:31.252Z,100255.14
2018-12-07T21:46:34.522Z,100273.19
2018-12-07T21:49:21.090Z,100280.59
2018-12-07T21:52:00.714Z,100277.05
2018-12-07T21:57:36.523Z,100292.00
2018-12-07T22:11:26.914Z,100288.94
2018-12-07T22:14:14.208Z,100288.77
2018-12-07T22:25:23.797Z,100299.13
2018-12-07T22:30:55.414Z,100293.89
2018-12-07T22:33:34.449Z,100291.30
2018-12-07T22:42:15.800Z,100290.91
2018-12-07T23:20:56.055Z,100311.77
2018-12-07T23:23:30.650Z,100311.61
2018-12-07T23:26:22.884Z,100309.59
2018-12-07T23:32:13.489Z,100321.78
2018-12-07T23:37:44.040Z,100320.05
2018-12-07T23:43:19.360Z,100324.14
2018-12-07T23:45:54.335Z,100320.12
2018-12-07T23:48:38.488Z,100330.50
2018-12-07T23:51:06.568Z,100331.02
2018-12-07T23:53:40.437Z,100304.44
2018-12-07T23:56:10.511Z,100328.53
2018-12-07T23:58:46.216Z,100322.50
